sensor_id;sensor_type;location;lat;lon;timestamp;pressure;altitude;pressure_sealevel;temperature;humidity
23241;BME280;11789;53.482;9.862;2022-08-18T00:00:32;101144.75;;;19.80;91.93
23241;BME280;11789;53.482;9.862;2022-08-18T00:03:00;101141.28;;;19.80;91.97
23241;BME280;11789;53.482;9.862;2022-08-18T00:05:28;101140.47;;;19.78;92.12
23241;BME280;11789;53.482;9.862;2022-08-18T00:07:53;101149.31;;;19.75;92.28
23241;BME280;11789;53.482;9.862;2022-08-18T00:10:19;101133.69;;;19.72;91.33
23241;BME280;11789;53.482;9.862;2022-08-18T00:12:44;101136.25;;;19.74;90.77
23241;BME280;11789;53.482;9.862;2022-08-18T00:15:12;101142.44;;;19.71;89.99
23241;BME280;11789;53.482;9.862;2022-08-18T00:17:38;101141.56;;;19.72;89.52
23241;BME280;11789;53.482;9.862;2022-08-18T00:20:07;101135.41;;;19.73;89.31
23241;BME280;11789;53.482;9.862;2022-08-18T00:22:33;101134.56;;;19.71;89.72
23241;BME280;11789;53.482;9.862;2022-08-18T00:24:59;101134.56;;;19.71;89.76
23241;BME280;11789;53.482;9.862;2022-08-18T00:27:27;101143.47;;;19.67;89.86
23241;BME280;11789;53.482;9.862;2022-08-18T00:29:55;101133.00;;;19.65;90.33
23241;BME280;11789;53.482;9.862;2022-08-18T00:32:24;101131.25;;;19.66;90.54
23241;BME280;11789;53.482;9.862;2022-08-18T00:34:50;101130.41;;;19.65;90.77
23241;BME280;11789;53.482;9.862;2022-08-18T00:37:16;101133.84;;;19.67;90.96
23241;BME280;11789;53.482;9.862;2022-08-18T00:39:41;101136.47;;;19.67;91.23
23241;BME280;11789;53.482;9.862;2022-08-18T00:42:41;101132.66;;;19.76;92.56
23241;BME280;11789;53.482;9.862;2022-08-18T00:45:12;101136.66;;;19.86;95.12
23241;BME280;11789;53.482;9.862;2022-08-18T00:47:38;101135.25;;;19.78;94.54
23241;BME280;11789;53.482;9.862;2022-08-18T00:50:04;101134.19;;;19.82;94.37
23241;BME280;11789;53.482;9.862;2022-08-18T00:52:30;101128.09;;;19.81;95.71
23241;BME280;11789;53.482;9.862;2022-08-18T00:54:59;101130.16;;;19.73;95.93
23241;BME280;11789;53.482;9.862;2022-08-18T00:57:27;101134.84;;;19.63;95.72
23241;BME280;11789;53.482;9.862;2022-08-18T00:59:58;101128.84;;;19.60;95.61
23241;BME280;11789;53.482;9.862;2022-08-18T01:02:34;101130.62;;;19.58;95.31
23241;BME280;11789;53.482;9.862;2022-08-18T01:05:08;101133.47;;;19.52;95.10
23241;BME280;11789;53.482;9.862;2022-08-18T01:07:41;101129.13;;;19.51;94.79
23241;BME280;11789;53.482;9.862;2022-08-18T01:10:21;101133.28;;;19.56;94.69
23241;BME280;11789;53.482;9.862;2022-08-18T01:12:49;101130.62;;;19.58;94.43
23241;BME280;11789;53.482;9.862;2022-08-18T01:15:17;101132.50;;;19.54;94.47
23241;BME280;11789;53.482;9.862;2022-08-18T01:17:44;101123.69;;;19.57;94.61
23241;BME280;11789;53.482;9.862;2022-08-18T01:20:56;101122.69;;;19.61;94.55
23241;BME280;11789;53.482;9.862;2022-08-18T01:23:43;101118.81;;;19.73;94.57
23241;BME280;11789;53.482;9.862;2022-08-18T01:26:10;101120.28;;;19.80;94.33
23241;BME280;11789;53.482;9.862;2022-08-18T01:28:38;101126.53;;;19.76;95.33
23241;BME280;11789;53.482;9.862;2022-08-18T01:31:06;101121.19;;;19.79;95.64
23241;BME280;11789;53.482;9.862;2022-08-18T01:33:41;101130.72;;;19.81;95.33
23241;BME280;11789;53.482;9.862;2022-08-18T01:36:18;101122.91;;;19.80;94.36
23241;BME280;11789;53.482;9.862;2022-08-18T01:38:47;101131.75;;;19.77;94.04
23241;BME280;11789;53.482;9.862;2022-08-18T01:41:14;101136.66;;;19.61;94.26
23241;BME280;11789;53.482;9.862;2022-08-18T01:43:40;101132.34;;;19.59;95.11
23241;BME280;11789;53.482;9.862;2022-08-18T01:46:06;101135.84;;;19.59;95.30
23241;BME280;11789;53.482;9.862;2022-08-18T01:48:33;101139.19;;;19.64;95.72
23241;BME280;11789;53.482;9.862;2022-08-18T01:51:15;101139.81;;;19.71;95.41
23241;BME280;11789;53.482;9.862;2022-08-18T01:53:42;101135.63;;;19.65;95.95
23241;BME280;11789;53.482;9.862;2022-08-18T01:56:09;101142.84;;;19.59;96.37
23241;BME280;11789;53.482;9.862;2022-08-18T01:58:35;101137.69;;;19.56;96.96
23241;BME280;11789;53.482;9.862;2022-08-18T02:01:02;101135.84;;;19.59;96.50
23241;BME280;11789;53.482;9.862;2022-08-18T02:03:37;101133.88;;;19.66;95.62
23241;BME280;11789;53.482;9.862;2022-08-18T02:06:07;101121.50;;;19.69;95.00
23241;BME280;11789;53.482;9.862;2022-08-18T02:08:35;101132.41;;;19.57;95.00
23241;BME280;11789;53.482;9.862;2022-08-18T02:11:00;101125.91;;;19.42;95.60
23241;BME280;11789;53.482;9.862;2022-08-18T02:13:28;101123.59;;;19.33;96.13
23241;BME280;11789;53.482;9.862;2022-08-18T02:15:54;101118.41;;;19.32;96.31
23241;BME280;11789;53.482;9.862;2022-08-18T02:18:29;101118.44;;;19.30;96.44
23241;BME280;11789;53.482;9.862;2022-08-18T02:21:07;101117.53;;;19.31;96.72
23241;BME280;11789;53.482;9.862;2022-08-18T02:23:33;101113.72;;;19.41;95.35
23241;BME280;11789;53.482;9.862;2022-08-18T02:26:03;101111.09;;;19.41;94.80
23241;BME280;11789;53.482;9.862;2022-08-18T02:28:28;101107.56;;;19.42;94.81
23241;BME280;11789;53.482;9.862;2022-08-18T02:30:54;101114.28;;;19.50;94.45
23241;BME280;11789;53.482;9.862;2022-08-18T02:33:19;101116.97;;;19.48;94.42
23241;BME280;11789;53.482;9.862;2022-08-18T02:35:52;101115.66;;;19.35;95.38
23241;BME280;11789;53.482;9.862;2022-08-18T02:38:18;101113.41;;;19.24;96.30
23241;BME280;11789;53.482;9.862;2022-08-18T02:40:43;101107.50;;;19.17;96.29
23241;BME280;11789;53.482;9.862;2022-08-18T02:43:11;101111.13;;;19.13;96.40
23241;BME280;11789;53.482;9.862;2022-08-18T02:45:37;101105.09;;;19.11;96.78
23241;BME280;11789;53.482;9.862;2022-08-18T02:48:03;101109.62;;;19.06;97.13
23241;BME280;11789;53.482;9.862;2022-08-18T02:50:29;101105.22;;;19.07;97.90
23241;BME280;11789;53.482;9.862;2022-08-18T02:52:55;101106.22;;;19.03;98.03
23241;BME280;11789;53.482;9.862;2022-08-18T02:55:20;101103.75;;;18.98;97.84
23241;BME280;11789;53.482;9.862;2022-08-18T02:57:47;101100.28;;;18.98;97.52
23241;BME280;11789;53.482;9.862;2022-08-18T03:00:17;101096.94;;;18.92;97.43
23241;BME280;11789;53.482;9.862;2022-08-18T03:02:47;101103.47;;;18.79;98.41
23241;BME280;11789;53.482;9.862;2022-08-18T03:05:14;101099.06;;;18.81;98.92
23241;BME280;11789;53.482;9.862;2022-08-18T03:07:39;101102.38;;;18.86;99.04
23241;BME280;11789;53.482;9.862;2022-08-18T03:10:05;101103.75;;;18.98;98.42
23241;BME280;11789;53.482;9.862;2022-08-18T03:12:31;101103.41;;;19.09;97.48
23241;BME280;11789;53.482;9.862;2022-08-18T03:14:57;101104.87;;;19.17;96.72
23241;BME280;11789;53.482;9.862;2022-08-18T03:17:22;101108.34;;;19.18;96.21
23241;BME280;11789;53.482;9.862;2022-08-18T03:19:48;101111.78;;;19.20;96.12
23241;BME280;11789;53.482;9.862;2022-08-18T03:22:14;101119.78;;;19.15;95.91
23241;BME280;11789;53.482;9.862;2022-08-18T03:24:39;101133.22;;;19.05;96.33
23241;BME280;11789;53.482;9.862;2022-08-18T03:27:06;101131.72;;;18.98;97.15
23241;BME280;11789;53.482;9.862;2022-08-18T03:29:33;101138.47;;;19.05;97.39
23241;BME280;11789;53.482;9.862;2022-08-18T03:32:04;101132.19;;;19.10;96.34
23241;BME280;11789;53.482;9.862;2022-08-18T03:34:32;101138.09;;;19.17;95.06
23241;BME280;11789;53.482;9.862;2022-08-18T03:36:58;101138.84;;;19.21;94.03
23241;BME280;11789;53.482;9.862;2022-08-18T03:39:24;101144.28;;;19.14;94.53
23241;BME280;11789;53.482;9.862;2022-08-18T03:41:55;101141.09;;;19.05;94.64
23241;BME280;11789;53.482;9.862;2022-08-18T03:44:22;101142.09;;;19.01;95.33
23241;BME280;11789;53.482;9.862;2022-08-18T03:46:48;101142.00;;;19.04;95.40
23241;BME280;11789;53.482;9.862;2022-08-18T03:49:15;101145.59;;;19.01;96.22
23241;BME280;11789;53.482;9.862;2022-08-18T03:51:43;101141.91;;;19.07;96.01
23241;BME280;11789;53.482;9.862;2022-08-18T03:54:11;101144.47;;;19.08;96.19
23241;BME280;11789;53.482;9.862;2022-08-18T03:56:46;101146.09;;;19.12;95.96
23241;BME280;11789;53.482;9.862;2022-08-18T03:59:18;101148.94;;;19.05;95.65
23241;BME280;11789;53.482;9.862;2022-08-18T04:01:45;101140.62;;;18.92;96.50
23241;BME280;11789;53.482;9.862;2022-08-18T04:04:15;101144.00;;;18.96;95.98
23241;BME280;11789;53.482;9.862;2022-08-18T04:06:47;101151.78;;;18.99;95.55
23241;BME280;11789;53.482;9.862;2022-08-18T04:09:18;101144.19;;;18.89;95.94
23241;BME280;11789;53.482;9.862;2022-08-18T04:11:44;101146.28;;;18.78;96.62
23241;BME280;11789;53.482;9.862;2022-08-18T04:14:21;101137.75;;;18.72;97.25
23241;BME280;11789;53.482;9.862;2022-08-18T04:16:49;101141.34;;;18.67;98.00
23241;BME280;11789;53.482;9.862;2022-08-18T04:19:15;101135.88;;;18.75;98.09
23241;BME280;11789;53.482;9.862;2022-08-18T04:21:42;101136.72;;;18.77;97.49
23241;BME280;11789;53.482;9.862;2022-08-18T04:24:10;101136.91;;;18.71;97.51
23241;BME280;11789;53.482;9.862;2022-08-18T04:26:39;101134.19;;;18.74;97.80
23241;BME280;11789;53.482;9.862;2022-08-18T04:29:09;101133.09;;;18.81;96.97
23241;BME280;11789;53.482;9.862;2022-08-18T04:31:35;101137.25;;;18.88;96.29
23241;BME280;11789;53.482;9.862;2022-08-18T04:34:01;101132.66;;;18.95;95.95
23241;BME280;11789;53.482;9.862;2022-08-18T04:36:29;101129.00;;;19.01;95.59
23241;BME280;11789;53.482;9.862;2022-08-18T04:38:56;101134.94;;;19.06;95.21
23241;BME280;11789;53.482;9.862;2022-08-18T04:41:24;101134.22;;;19.01;95.65
23241;BME280;11789;53.482;9.862;2022-08-18T04:43:57;101128.37;;;18.92;97.00
23241;BME280;11789;53.482;9.862;2022-08-18T04:46:23;101144.81;;;18.98;98.37
23241;BME280;11789;53.482;9.862;2022-08-18T04:48:49;101148.25;;;19.00;98.69
23241;BME280;11789;53.482;9.862;2022-08-18T04:51:17;101143.91;;;18.99;98.90
23241;BME280;11789;53.482;9.862;2022-08-18T04:53:43;101142.16;;;18.99;98.11
23241;BME280;11789;53.482;9.862;2022-08-18T04:58:43;101140.81;;;19.14;96.50
23241;BME280;11789;53.482;9.862;2022-08-18T05:01:09;101138.19;;;19.14;96.39
23241;BME280;11789;53.482;9.862;2022-08-18T05:03:34;101145.41;;;19.07;96.65
23241;BME280;11789;53.482;9.862;2022-08-18T05:06:03;101147.53;;;18.95;97.40
23241;BME280;11789;53.482;9.862;2022-08-18T05:08:29;101149.44;;;18.89;98.37
23241;BME280;11789;53.482;9.862;2022-08-18T05:10:56;101147.81;;;18.85;99.31
23241;BME280;11789;53.482;9.862;2022-08-18T05:13:24;101153.94;;;18.86;100.00
23241;BME280;11789;53.482;9.862;2022-08-18T05:15:55;101147.62;;;18.91;100.00
23241;BME280;11789;53.482;9.862;2022-08-18T05:18:23;101151.81;;;18.97;100.00
23241;BME280;11789;53.482;9.862;2022-08-18T05:20:51;101150.78;;;19.03;100.00
23241;BME280;11789;53.482;9.862;2022-08-18T05:23:18;101154.31;;;19.02;99.76
23241;BME280;11789;53.482;9.862;2022-08-18T05:25:44;101154.31;;;19.02;99.76
23241;BME280;11789;53.482;9.862;2022-08-18T05:28:09;101155.91;;;19.06;99.85
23241;BME280;11789;53.482;9.862;2022-08-18T05:30:35;101151.38;;;19.11;99.75
23241;BME280;11789;53.482;9.862;2022-08-18T05:33:01;101158.34;;;19.12;100.00
23241;BME280;11789;53.482;9.862;2022-08-18T05:35:37;101162.87;;;19.07;100.00
23241;BME280;11789;53.482;9.862;2022-08-18T05:38:36;101162.03;;;19.06;100.00
23241;BME280;11789;53.482;9.862;2022-08-18T05:41:14;101168.84;;;19.12;100.00
23241;BME280;11789;53.482;9.862;2022-08-18T05:43:44;101168.00;;;19.10;100.00
23241;BME280;11789;53.482;9.862;2022-08-18T05:46:13;101168.00;;;19.10;100.00
23241;BME280;11789;53.482;9.862;2022-08-18T05:48:39;101175.94;;;19.08;100.00
23241;BME280;11789;53.482;9.862;2022-08-18T05:51:13;101170.75;;;19.07;100.00
23241;BME280;11789;53.482;9.862;2022-08-18T05:53:41;101166.16;;;19.13;100.00
23241;BME280;11789;53.482;9.862;2022-08-18T05:56:28;101171.34;;;19.15;100.00
23241;BME280;11789;53.482;9.862;2022-08-18T05:59:15;101171.41;;;19.13;100.00
23241;BME280;11789;53.482;9.862;2022-08-18T06:01:45;101173.16;;;19.13;100.00
23241;BME280;11789;53.482;9.862;2022-08-18T06:04:24;101167.00;;;19.14;100.00
23241;BME280;11789;53.482;9.862;2022-08-18T06:06:54;101169.56;;;19.15;100.00
23241;BME280;11789;53.482;9.862;2022-08-18T06:09:33;101171.59;;;19.07;100.00
23241;BME280;11789;53.482;9.862;2022-08-18T06:12:29;101179.66;;;19.01;100.00
23241;BME280;11789;53.482;9.862;2022-08-18T06:15:14;101183.28;;;18.97;100.00
23241;BME280;11789;53.482;9.862;2022-08-18T06:26:49;101179.06;;;18.91;100.00
23241;BME280;11789;53.482;9.862;2022-08-18T06:38:10;101193.94;;;18.91;100.00
23241;BME280;11789;53.482;9.862;2022-08-18T06:44:43;101212.41;;;18.86;100.00
23241;BME280;11789;53.482;9.862;2022-08-18T06:46:55;101212.31;;;18.89;100.00
23241;BME280;11789;53.482;9.862;2022-08-18T06:52:20;101211.25;;;18.97;100.00
23241;BME280;11789;53.482;9.862;2022-08-18T06:54:46;101222.53;;;18.99;100.00
23241;BME280;11789;53.482;9.862;2022-08-18T06:57:25;101223.47;;;18.96;100.00
23241;BME280;11789;53.482;9.862;2022-08-18T07:00:02;101218.06;;;19.01;100.00
23241;BME280;11789;53.482;9.862;2022-08-18T07:05:14;101221.28;;;19.10;100.00
23241;BME280;11789;53.482;9.862;2022-08-18T07:07:43;101227.28;;;19.14;100.00
23241;BME280;11789;53.482;9.862;2022-08-18T07:12:43;101221.06;;;19.18;100.00
23241;BME280;11789;53.482;9.862;2022-08-18T07:15:11;101226.50;;;19.12;100.00
23241;BME280;11789;53.482;9.862;2022-08-18T07:17:37;101229.84;;;19.15;100.00
23241;BME280;11789;53.482;9.862;2022-08-18T07:20:07;101230.63;;;19.19;100.00
23241;BME280;11789;53.482;9.862;2022-08-18T07:22:55;101226.22;;;19.21;100.00
23241;BME280;11789;53.482;9.862;2022-08-18T07:25:30;101234.16;;;19.18;100.00
23241;BME280;11789;53.482;9.862;2022-08-18T07:27:58;101227.16;;;19.18;100.00
23241;BME280;11789;53.482;9.862;2022-08-18T07:30:36;101234.16;;;19.18;100.00
23241;BME280;11789;53.482;9.862;2022-08-18T07:33:17;101240.41;;;19.14;100.00
23241;BME280;11789;53.482;9.862;2022-08-18T07:35:49;101250.22;;;19.07;100.00
23241;BME280;11789;53.482;9.862;2022-08-18T07:38:32;101243.22;;;19.08;100.00
23241;BME280;11789;53.482;9.862;2022-08-18T07:41:09;101246.75;;;19.07;100.00
23241;BME280;11789;53.482;9.862;2022-08-18T07:46:40;101238.78;;;19.10;100.00
23241;BME280;11789;53.482;9.862;2022-08-18T07:49:09;101250.97;;;19.11;100.00
23241;BME280;11789;53.482;9.862;2022-08-18T07:51:47;101245.78;;;19.09;100.00
23241;BME280;11789;53.482;9.862;2022-08-18T07:54:17;101252.66;;;19.13;100.00
23241;BME280;11789;53.482;9.862;2022-08-18T08:02:49;101252.31;;;19.24;100.00
23241;BME280;11789;53.482;9.862;2022-08-18T08:05:24;101254.03;;;19.25;100.00
23241;BME280;11789;53.482;9.862;2022-08-18T08:08:04;101259.00;;;19.34;100.00
23241;BME280;11789;53.482;9.862;2022-08-18T08:13:51;101255.03;;;19.49;100.00
23241;BME280;11789;53.482;9.862;2022-08-18T08:16:44;101256.53;;;19.58;100.00
23241;BME280;11789;53.482;9.862;2022-08-18T08:24:52;101262.22;;;19.72;100.00
23241;BME280;11789;53.482;9.862;2022-08-18T08:30:13;101259.91;;;19.89;100.00
23241;BME280;11789;53.482;9.862;2022-08-18T08:35:40;101258.06;;;19.91;100.00
23241;BME280;11789;53.482;9.862;2022-08-18T08:38:12;101257.75;;;20.01;100.00
23241;BME280;11789;53.482;9.862;2022-08-18T08:40:51;101251.41;;;20.08;100.00
23241;BME280;11789;53.482;9.862;2022-08-18T08:43:24;101246.66;;;20.19;100.00
23241;BME280;11789;53.482;9.862;2022-08-18T08:45:59;101249.00;;;20.27;100.00
23241;BME280;11789;53.482;9.862;2022-08-18T08:51:43;101252.44;;;20.29;100.00
23241;BME280;11789;53.482;9.862;2022-08-18T08:54:17;101243.66;;;20.30;100.00
23241;BME280;11789;53.482;9.862;2022-08-18T08:56:46;101248.84;;;20.31;100.00
23241;BME280;11789;53.482;9.862;2022-08-18T08:59:17;101247.91;;;20.32;100.00
23241;BME280;11789;53.482;9.862;2022-08-18T09:05:07;101250.50;;;20.34;99.38
23241;BME280;11789;53.482;9.862;2022-08-18T09:07:44;101260.87;;;20.37;98.41
23241;BME280;11789;53.482;9.862;2022-08-18T09:10:33;101259.12;;;20.37;98.01
23241;BME280;11789;53.482;9.862;2022-08-18T09:24:18;101260.69;;;20.68;96.96
23241;BME280;11789;53.482;9.862;2022-08-18T09:40:33;101239.25;;;21.02;93.42
23241;BME280;11789;53.482;9.862;2022-08-18T09:46:55;101247.78;;;21.09;93.66
23241;BME280;11789;53.482;9.862;2022-08-18T09:51:52;101249.44;;;21.11;93.79
23241;BME280;11789;53.482;9.862;2022-08-18T09:54:27;101245.94;;;21.11;93.87
23241;BME280;11789;53.482;9.862;2022-08-18T09:57:13;101246.69;;;21.14;93.74
23241;BME280;11789;53.482;9.862;2022-08-18T10:10:50;101241.97;;;21.46;90.21
23241;BME280;11789;53.482;9.862;2022-08-18T10:13:32;101236.53;;;21.50;89.69
23241;BME280;11789;53.482;9.862;2022-08-18T10:21:27;101235.91;;;21.66;88.98
23241;BME280;11789;53.482;9.862;2022-08-18T10:31:28;101242.75;;;21.70;89.72
23241;BME280;11789;53.482;9.862;2022-08-18T10:36:44;101248.16;;;21.87;87.98
23241;BME280;11789;53.482;9.862;2022-08-18T10:39:15;101250.22;;;22.01;87.27
23241;BME280;11789;53.482;9.862;2022-08-18T10:42:03;101242.25;;;22.02;86.12
23241;BME280;11789;53.482;9.862;2022-08-18T10:44:34;101252.00;;;22.00;85.17
23241;BME280;11789;53.482;9.862;2022-08-18T10:47:02;101253.56;;;22.05;85.26
23241;BME280;11789;53.482;9.862;2022-08-18T10:49:29;101264.75;;;22.10;85.46
23241;BME280;11789;53.482;9.862;2022-08-18T10:52:28;101262.12;;;22.10;85.96
23241;BME280;11789;53.482;9.862;2022-08-18T10:55:19;101264.75;;;22.11;86.06
23241;BME280;11789;53.482;9.862;2022-08-18T11:00:50;101255.94;;;22.12;84.79
23241;BME280;11789;53.482;9.862;2022-08-18T11:05:45;101251.44;;;22.14;83.99
23241;BME280;11789;53.482;9.862;2022-08-18T11:08:13;101257.56;;;22.15;84.21
23241;BME280;11789;53.482;9.862;2022-08-18T11:10:49;101247.84;;;22.17;84.37
23241;BME280;11789;53.482;9.862;2022-08-18T11:16:12;101258.22;;;22.20;84.01
23241;BME280;11789;53.482;9.862;2022-08-18T11:18:47;101256.47;;;22.20;83.85
23241;BME280;11789;53.482;9.862;2022-08-18T11:21:36;101262.50;;;22.22;83.96
23241;BME280;11789;53.482;9.862;2022-08-18T11:29:29;101252.72;;;22.26;83.48
23241;BME280;11789;53.482;9.862;2022-08-18T11:32:09;101250.00;;;22.27;83.12
23241;BME280;11789;53.482;9.862;2022-08-18T11:34:50;101245.91;;;22.41;83.13
23241;BME280;11789;53.482;9.862;2022-08-18T11:39:50;101251.63;;;22.50;83.37
23241;BME280;11789;53.482;9.862;2022-08-18T11:42:19;101247.63;;;22.61;82.51
23241;BME280;11789;53.482;9.862;2022-08-18T11:44:53;101253.16;;;22.75;81.36
23241;BME280;11789;53.482;9.862;2022-08-18T11:47:21;101245.62;;;22.86;78.52
23241;BME280;11789;53.482;9.862;2022-08-18T11:50:05;101249.00;;;22.90;77.24
23241;BME280;11789;53.482;9.862;2022-08-18T11:52:48;101238.31;;;22.93;77.76
23241;BME280;11789;53.482;9.862;2022-08-18T11:55:28;101239.91;;;22.97;77.09
23241;BME280;11789;53.482;9.862;2022-08-18T11:57:55;101239.03;;;22.96;76.79
23241;BME280;11789;53.482;9.862;2022-08-18T12:03:50;101227.97;;;22.88;76.96
23241;BME280;11789;53.482;9.862;2022-08-18T12:06:20;101223.47;;;22.90;77.43
23241;BME280;11789;53.482;9.862;2022-08-18T12:11:26;101214.91;;;22.85;77.46
23241;BME280;11789;53.482;9.862;2022-08-18T12:13:59;101214.97;;;22.84;78.13
23241;BME280;11789;53.482;9.862;2022-08-18T12:16:35;101214.97;;;22.84;78.79
23241;BME280;11789;53.482;9.862;2022-08-18T12:19:03;101211.97;;;22.93;79.23
23241;BME280;11789;53.482;9.862;2022-08-18T12:21:29;101210.44;;;23.06;78.91
23241;BME280;11789;53.482;9.862;2022-08-18T12:23:55;101222.75;;;23.24;77.65
23241;BME280;11789;53.482;9.862;2022-08-18T12:26:21;101221.53;;;23.31;75.88
23241;BME280;11789;53.482;9.862;2022-08-18T12:28:46;101221.47;;;23.33;76.47
23241;BME280;11789;53.482;9.862;2022-08-18T12:31:12;101210.91;;;23.33;76.95
23241;BME280;11789;53.482;9.862;2022-08-18T12:33:37;101210.97;;;23.31;76.86
23241;BME280;11789;53.482;9.862;2022-08-18T12:36:04;101210.19;;;23.29;75.50
23241;BME280;11789;53.482;9.862;2022-08-18T12:38:33;101211.06;;;23.30;75.35
23241;BME280;11789;53.482;9.862;2022-08-18T12:40:59;101216.50;;;23.27;75.76
23241;BME280;11789;53.482;9.862;2022-08-18T12:43:24;101214.06;;;23.22;76.42
23241;BME280;11789;53.482;9.862;2022-08-18T12:45:50;101211.78;;;23.15;76.57
23241;BME280;11789;53.482;9.862;2022-08-18T12:48:16;101204.03;;;23.12;76.70
23241;BME280;11789;53.482;9.862;2022-08-18T12:50:42;101192.34;;;23.17;76.13
23241;BME280;11789;53.482;9.862;2022-08-18T12:53:11;101186.84;;;23.22;76.66
23241;BME280;11789;53.482;9.862;2022-08-18T12:55:40;101191.03;;;23.26;77.29
23241;BME280;11789;53.482;9.862;2022-08-18T12:58:08;101183.59;;;23.34;77.25
23241;BME280;11789;53.482;9.862;2022-08-18T13:00:34;101188.66;;;23.39;76.32
23241;BME280;11789;53.482;9.862;2022-08-18T13:03:00;101185.78;;;23.43;75.71
23241;BME280;11789;53.482;9.862;2022-08-18T13:05:27;101178.50;;;23.48;75.19
23241;BME280;11789;53.482;9.862;2022-08-18T13:07:54;101184.31;;;23.55;74.56
23241;BME280;11789;53.482;9.862;2022-08-18T13:10:22;101183.31;;;23.58;74.27
23241;BME280;11789;53.482;9.862;2022-08-18T13:12:47;101185.78;;;23.61;73.51
23241;BME280;11789;53.482;9.862;2022-08-18T13:15:13;101195.41;;;23.63;73.30
23241;BME280;11789;53.482;9.862;2022-08-18T13:17:38;101193.59;;;23.64;73.24
23241;BME280;11789;53.482;9.862;2022-08-18T13:20:08;101196.78;;;23.70;73.84
23241;BME280;11789;53.482;9.862;2022-08-18T13:22:36;101198.44;;;23.73;72.91
23241;BME280;11789;53.482;9.862;2022-08-18T13:25:06;101191.59;;;23.69;72.77
23241;BME280;11789;53.482;9.862;2022-08-18T13:27:35;101198.03;;;23.63;73.21
23241;BME280;11789;53.482;9.862;2022-08-18T13:30:04;101202.72;;;23.56;73.96
23241;BME280;11789;53.482;9.862;2022-08-18T13:32:30;101202.09;;;23.51;74.39
23241;BME280;11789;53.482;9.862;2022-08-18T13:34:55;101194.34;;;23.48;74.90
23241;BME280;11789;53.482;9.862;2022-08-18T13:37:20;101191.62;;;23.50;74.87
23241;BME280;11789;53.482;9.862;2022-08-18T13:39:47;101179.87;;;23.55;74.88
23241;BME280;11789;53.482;9.862;2022-08-18T13:42:12;101176.03;;;23.63;75.26
23241;BME280;11789;53.482;9.862;2022-08-18T13:44:38;101176.81;;;23.65;75.26
23241;BME280;11789;53.482;9.862;2022-08-18T13:47:06;101171.56;;;23.65;76.10
23241;BME280;11789;53.482;9.862;2022-08-18T13:49:31;101168.81;;;23.66;75.52
23241;BME280;11789;53.482;9.862;2022-08-18T13:51:57;101172.31;;;23.67;75.66
23241;BME280;11789;53.482;9.862;2022-08-18T13:54:29;101173.81;;;23.72;76.23
23241;BME280;11789;53.482;9.862;2022-08-18T13:56:56;101164.97;;;23.73;75.05
23241;BME280;11789;53.482;9.862;2022-08-18T13:59:22;101169.16;;;23.77;75.40
23241;BME280;11789;53.482;9.862;2022-08-18T14:01:51;101174.59;;;23.74;75.16
23241;BME280;11789;53.482;9.862;2022-08-18T14:04:19;101170.16;;;23.75;74.87
23241;BME280;11789;53.482;9.862;2022-08-18T14:06:44;101169.84;;;23.81;74.62
23241;BME280;11789;53.482;9.862;2022-08-18T14:09:10;101187.09;;;23.88;74.76
23241;BME280;11789;53.482;9.862;2022-08-18T14:11:38;101192.19;;;23.91;73.15
23241;BME280;11789;53.482;9.862;2022-08-18T14:14:04;101186.91;;;23.91;71.27
23241;BME280;11789;53.482;9.862;2022-08-18T14:16:31;101192.59;;;23.84;71.52
23241;BME280;11789;53.482;9.862;2022-08-18T14:18:57;101178.59;;;23.81;71.89
23241;BME280;11789;53.482;9.862;2022-08-18T14:21:48;101171.31;;;23.87;72.55
23241;BME280;11789;53.482;9.862;2022-08-18T14:24:33;101181.00;;;23.86;74.61
23241;BME280;11789;53.482;9.862;2022-08-18T14:27:23;101188.00;;;23.87;76.15
23241;BME280;11789;53.482;9.862;2022-08-18T14:29:48;101191.91;;;23.80;76.45
23241;BME280;11789;53.482;9.862;2022-08-18T14:32:18;101192.22;;;23.74;76.71
23241;BME280;11789;53.482;9.862;2022-08-18T14:35:02;101190.78;;;23.67;76.77
23241;BME280;11789;53.482;9.862;2022-08-18T14:37:29;101197.09;;;23.64;77.12
23241;BME280;11789;53.482;9.862;2022-08-18T14:39:54;101202.38;;;23.64;77.87
23241;BME280;11789;53.482;9.862;2022-08-18T14:42:23;101208.41;;;23.66;78.32
23241;BME280;11789;53.482;9.862;2022-08-18T14:44:48;101218.31;;;23.61;77.22
23241;BME280;11789;53.482;9.862;2022-08-18T14:47:14;101215.91;;;23.56;77.06
23241;BME280;11789;53.482;9.862;2022-08-18T14:49:40;101216.28;;;23.49;77.12
23241;BME280;11789;53.482;9.862;2022-08-18T14:52:07;101210.47;;;23.42;77.66
23241;BME280;11789;53.482;9.862;2022-08-18T14:54:33;101214.31;;;23.35;77.74
23241;BME280;11789;53.482;9.862;2022-08-18T14:57:00;101217.19;;;23.30;78.00
23241;BME280;11789;53.482;9.862;2022-08-18T14:59:27;101222.75;;;23.24;77.86
23241;BME280;11789;53.482;9.862;2022-08-18T15:01:55;101216.75;;;23.21;77.88
23241;BME280;11789;53.482;9.862;2022-08-18T15:04:20;101221.19;;;23.20;78.07
23241;BME280;11789;53.482;9.862;2022-08-18T15:06:47;101219.41;;;23.21;78.78
23241;BME280;11789;53.482;9.862;2022-08-18T15:09:13;101219.56;;;23.18;78.82
23241;BME280;11789;53.482;9.862;2022-08-18T15:11:41;101221.34;;;23.17;79.16
23241;BME280;11789;53.482;9.862;2022-08-18T15:14:07;101223.41;;;23.11;78.60
23241;BME280;11789;53.482;9.862;2022-08-18T15:16:34;101228.00;;;23.07;78.80
23241;BME280;11789;53.482;9.862;2022-08-18T15:19:01;101233.25;;;23.07;78.70
23241;BME280;11789;53.482;9.862;2022-08-18T15:21:27;101229.81;;;23.05;78.93
23241;BME280;11789;53.482;9.862;2022-08-18T15:24:11;101237.91;;;23.02;79.13
23241;BME280;11789;53.482;9.862;2022-08-18T15:26:56;101231.13;;;22.96;79.76